LFVP

Details ICAO LFVP (FSP)
Name St Pierre
Region France
Timezone Unknown (UTC+0.0)
Plans Departing 33
Arriving 38
Stats Elevation 27 ft / 8 m (AMSL)
Location 46.762662° -56.175529°
Runways 1
Magnetic Variation 18.223° W
Sunrise 2017-12-15 11:24:21 UTC / 2017-12-15 11:24:21 Local
Sunset 2017-12-15 19:58:18 UTC / 2017-12-15 19:58:18 Local
Advertisement - Login to hide

Runways

ID Width Length Bearing (true) Bearing (mag) Surface Threshold Offset Overrun Length
08 150 ft / 46 m 5,902 ft / 1,799 m 58.48° 76.70° Asphalt 0 ft / 0 m 0 ft / 0 m
26 150 ft / 46 m 5,902 ft / 1,799 m 238.50° 256.72° Asphalt 0 ft / 0 m 0 ft / 0 m

Map

Weather


0- 5 10 15 20 25 30 35+ Temperature / ° C

Clouds and Precipitation
Forecast for 2017-12-16 00:00 UTC. Updated 23 minutes ago

Ground ~20,000 ft ~40,000 ft Winds

METAR

LFVP 152100Z 25030G41KT 9999 BKN035 M00/M06 Q1008 NOSIG

TAF

TAF AMD TAF AMD LFVP 151554Z 1515/1524 26035G45KT 9999 OVC025 TEMPO 1516/1519 1200 SHSN OVC003

Frequencies

Unicom 119.10 MHz CTAF
Approach 119.10 MHz TRML
Tower 119.10 MHz TWR
Warning: Do not use this data for real-world aviation or navigation. No guarantee of current accuracy is given.